createdAt,value
2019-02-26T00:02:23.609Z,12.03
2019-02-26T00:04:54.125Z,12.70
2019-02-26T00:07:25.194Z,13.43
2019-02-26T00:09:55.707Z,12.90
2019-02-26T00:12:26.283Z,13.40
2019-02-26T00:14:56.945Z,12.77
2019-02-26T00:17:25.947Z,11.97
2019-02-26T00:19:54.793Z,13.20
2019-02-26T00:22:23.662Z,13.47
2019-02-26T00:24:52.546Z,13.30
2019-02-26T00:27:23.367Z,12.63
2019-02-26T00:29:53.069Z,12.13
2019-02-26T00:32:24.930Z,13.23
2019-02-26T00:34:55.352Z,12.20
2019-02-26T00:37:26.246Z,12.63
2019-02-26T00:39:56.378Z,13.30
2019-02-26T00:42:26.421Z,13.97
2019-02-26T00:44:57.711Z,14.40
2019-02-26T00:47:29.895Z,13.67
2019-02-26T00:49:56.787Z,14.03
2019-02-26T00:52:25.573Z,13.17
2019-02-26T00:54:57.591Z,13.70
2019-02-26T00:57:27.147Z,15.77
2019-02-26T00:59:55.553Z,13.90
2019-02-26T01:02:24.889Z,14.43
2019-02-26T01:04:53.656Z,14.50
2019-02-26T01:07:23.851Z,14.00
2019-02-26T01:09:54.703Z,12.90
2019-02-26T01:12:23.619Z,12.90
2019-02-26T01:14:52.430Z,14.20
2019-02-26T01:17:21.199Z,12.67
2019-02-26T01:19:50.112Z,12.17
2019-02-26T01:22:19.007Z,14.07
2019-02-26T01:24:49.689Z,15.10
2019-02-26T01:27:19.505Z,14.97
2019-02-26T01:29:51.248Z,14.03
2019-02-26T01:32:20.483Z,13.93
2019-02-26T01:34:49.552Z,14.20
2019-02-26T01:37:18.399Z,15.37
2019-02-26T01:39:49.199Z,13.70
2019-02-26T01:42:19.309Z,14.10
2019-02-26T01:44:48.163Z,13.27
2019-02-26T01:47:17.929Z,14.13
2019-02-26T01:49:49.388Z,14.20
2019-02-26T01:52:17.969Z,14.83
2019-02-26T01:54:46.853Z,14.00
2019-02-26T01:57:17.326Z,14.20
2019-02-26T01:59:47.446Z,13.73
2019-02-26T02:02:18.110Z,13.27
2019-02-26T02:04:47.257Z,13.33
2019-02-26T02:07:16.029Z,15.00
2019-02-26T02:09:46.796Z,15.13
2019-02-26T02:12:15.458Z,13.27
2019-02-26T02:14:44.220Z,12.17
2019-02-26T02:17:13.585Z,13.10
2019-02-26T02:19:42.531Z,14.30
2019-02-26T02:22:12.182Z,14.87
2019-02-26T02:24:43.671Z,14.67
2019-02-26T02:27:12.633Z,14.27
2019-02-26T02:29:45.779Z,15.00
2019-02-26T02:32:13.243Z,14.97
2019-02-26T02:34:43.054Z,15.57
2019-02-26T02:37:12.054Z,15.77
2019-02-26T02:39:40.827Z,15.23
2019-02-26T02:42:10.985Z,15.87
2019-02-26T02:44:42.205Z,15.47
2019-02-26T02:47:11.292Z,15.77
2019-02-26T02:49:42.585Z,14.23
2019-02-26T02:52:11.875Z,15.33
2019-02-26T02:54:43.494Z,14.73
2019-02-26T02:57:11.340Z,14.47
2019-02-26T02:59:42.214Z,15.83
2019-02-26T03:02:12.672Z,15.47
2019-02-26T03:04:41.179Z,16.17
2019-02-26T03:07:09.964Z,15.47
2019-02-26T03:09:40.596Z,18.20
2019-02-26T03:12:09.256Z,15.33
2019-02-26T03:14:39.164Z,15.83
2019-02-26T03:17:10.979Z,16.97
2019-02-26T03:19:41.637Z,17.03
2019-02-26T03:22:10.491Z,17.27
2019-02-26T03:24:40.055Z,17.40
2019-02-26T03:27:08.886Z,17.27
2019-02-26T03:29:37.633Z,16.80
2019-02-26T03:32:06.492Z,17.97
2019-02-26T03:34:35.264Z,15.40
2019-02-26T03:37:06.260Z,16.67
2019-02-26T03:39:34.599Z,16.87
2019-02-26T03:42:03.437Z,16.07
2019-02-26T03:44:32.274Z,17.00
2019-02-26T03:47:01.052Z,16.10
2019-02-26T03:49:29.888Z,17.70
2019-02-26T03:52:00.135Z,16.80
2019-02-26T03:54:29.065Z,19.40
2019-02-26T03:56:57.923Z,16.90
2019-02-26T03:59:26.789Z,17.77
2019-02-26T04:01:55.687Z,16.83
2019-02-26T04:04:26.163Z,18.83
2019-02-26T04:06:55.890Z,16.27
2019-02-26T04:09:25.650Z,16.00
2019-02-26T04:11:55.428Z,17.10
2019-02-26T04:14:27.706Z,16.60
2019-02-26T04:16:55.926Z,17.37
2019-02-26T04:19:26.805Z,17.33
2019-02-26T04:22:30.303Z,18.37
2019-02-26T04:25:06.300Z,17.67
2019-02-26T04:28:11.312Z,17.37
2019-02-26T04:31:47.096Z,18.50
2019-02-26T04:34:37.443Z,17.77
2019-02-26T04:37:14.476Z,16.40
2019-02-26T04:40:10.146Z,15.93
2019-02-26T04:42:51.868Z,18.30
2019-02-26T04:45:47.886Z,18.97
2019-02-26T04:48:19.354Z,17.50
2019-02-26T04:50:47.724Z,20.40
2019-02-26T04:53:16.518Z,19.30
2019-02-26T04:55:45.263Z,18.10
2019-02-26T04:58:17.042Z,16.73
2019-02-26T05:00:44.531Z,18.27
2019-02-26T05:03:14.891Z,16.87
2019-02-26T05:05:43.933Z,18.50
2019-02-26T05:08:14.695Z,18.50
2019-02-26T05:10:43.572Z,17.63
2019-02-26T05:13:12.398Z,17.67
2019-02-26T05:15:43.387Z,17.67
2019-02-26T05:18:11.663Z,17.73
2019-02-26T05:20:43.081Z,17.10
2019-02-26T05:23:10.940Z,17.50
2019-02-26T05:25:42.371Z,16.67
2019-02-26T05:28:12.531Z,17.30
2019-02-26T05:30:43.238Z,17.80
2019-02-26T05:33:11.151Z,16.63
2019-02-26T05:35:40.865Z,18.67
2019-02-26T05:38:10.572Z,18.63
2019-02-26T05:40:40.401Z,18.50
2019-02-26T05:43:09.862Z,17.50
2019-02-26T05:45:38.690Z,16.93
2019-02-26T05:48:07.511Z,19.57
2019-02-26T05:50:38.661Z,18.33
2019-02-26T05:53:07.656Z,18.83
2019-02-26T05:55:37.466Z,17.97
2019-02-26T05:58:07.434Z,17.37
2019-02-26T06:00:36.729Z,18.10
2019-02-26T06:03:09.004Z,17.57
2019-02-26T06:05:36.083Z,19.37
2019-02-26T06:08:05.052Z,18.10
2019-02-26T06:10:33.852Z,19.80
2019-02-26T06:13:04.865Z,21.13
2019-02-26T06:15:34.192Z,18.43
2019-02-26T06:18:03.101Z,19.70
2019-02-26T06:20:33.962Z,20.10
2019-02-26T06:23:02.375Z,20.43
2019-02-26T06:25:31.161Z,20.20
2019-02-26T06:28:02.304Z,19.90
2019-02-26T06:30:30.405Z,21.07
2019-02-26T06:33:02.039Z,19.20
2019-02-26T06:35:30.994Z,20.73
2019-02-26T06:38:02.135Z,21.30
2019-02-26T06:40:34.469Z,20.37
2019-02-26T06:43:01.282Z,21.30
2019-02-26T06:45:30.164Z,19.60
2019-02-26T06:47:58.930Z,20.10
2019-02-26T06:50:27.698Z,19.40
2019-02-26T06:52:56.490Z,19.20
2019-02-26T06:55:25.268Z,21.67
2019-02-26T06:57:55.152Z,19.50
2019-02-26T07:00:26.922Z,19.40
2019-02-26T07:02:54.680Z,19.27
2019-02-26T07:05:24.540Z,22.70
2019-02-26T07:07:55.089Z,20.93
2019-02-26T07:10:28.199Z,20.90
2019-02-26T07:12:55.310Z,21.53
2019-02-26T07:15:24.180Z,19.93
2019-02-26T07:17:53.013Z,22.87
2019-02-26T07:20:21.857Z,22.07
2019-02-26T07:22:51.625Z,21.93
2019-02-26T07:25:20.484Z,22.93
2019-02-26T07:27:51.219Z,23.10
2019-02-26T07:30:19.758Z,24.30
2019-02-26T07:32:48.498Z,24.97
2019-02-26T07:35:17.388Z,23.43
2019-02-26T07:37:46.208Z,24.70
2019-02-26T07:40:16.041Z,23.47
2019-02-26T07:42:46.764Z,24.60
2019-02-26T07:45:19.760Z,23.07
2019-02-26T07:47:49.125Z,24.23
2019-02-26T07:50:17.583Z,25.13
2019-02-26T07:52:47.455Z,22.07
2019-02-26T07:55:17.453Z,22.90
2019-02-26T07:57:48.959Z,22.93
2019-02-26T08:00:18.535Z,22.70
2019-02-26T08:02:47.318Z,24.23
2019-02-26T08:05:19.304Z,23.30
2019-02-26T08:07:49.229Z,21.17
2019-02-26T08:10:19.555Z,23.20
2019-02-26T08:12:48.570Z,23.30
2019-02-26T08:15:17.588Z,23.80
2019-02-26T08:17:50.288Z,22.60
2019-02-26T08:20:17.121Z,21.77
2019-02-26T08:22:45.980Z,24.97
2019-02-26T08:25:14.916Z,23.10
2019-02-26T08:27:43.752Z,24.03
2019-02-26T08:30:17.742Z,23.50
2019-02-26T08:32:48.364Z,22.97
2019-02-26T08:35:18.343Z,23.07
2019-02-26T08:37:46.453Z,23.77
2019-02-26T08:40:15.679Z,22.80
2019-02-26T08:42:44.562Z,24.93
2019-02-26T08:45:17.560Z,23.30
2019-02-26T08:47:45.836Z,24.43
2019-02-26T08:50:15.087Z,25.40
2019-02-26T08:52:46.788Z,25.10
2019-02-26T08:55:16.147Z,22.50
2019-02-26T08:57:45.275Z,25.37
2019-02-26T09:00:16.014Z,27.90
2019-02-26T09:02:46.104Z,24.67
2019-02-26T09:05:15.362Z,24.97
2019-02-26T09:07:45.585Z,25.30
2019-02-26T09:10:17.554Z,26.70
2019-02-26T09:12:48.570Z,24.10
2019-02-26T09:15:16.706Z,25.90
2019-02-26T09:17:45.554Z,27.27
2019-02-26T09:20:15.426Z,27.00
2019-02-26T09:22:47.998Z,24.83
2019-02-26T09:25:15.175Z,26.57
2019-02-26T09:27:43.988Z,26.23
2019-02-26T09:30:16.180Z,25.40
2019-02-26T09:32:45.179Z,28.80
2019-02-26T09:35:16.876Z,27.60
2019-02-26T09:37:47.474Z,26.37
2019-02-26T09:40:17.120Z,24.73
2019-02-26T09:42:51.194Z,26.43
2019-02-26T09:45:20.413Z,25.67
2019-02-26T09:47:49.735Z,26.50
2019-02-26T09:50:20.742Z,28.57
2019-02-26T09:52:50.836Z,26.73
2019-02-26T09:55:20.428Z,26.70
2019-02-26T09:57:49.236Z,29.83
2019-02-26T10:00:20.284Z,26.40
2019-02-26T10:02:49.498Z,28.40
2019-02-26T10:05:19.674Z,27.70
2019-02-26T10:07:48.479Z,29.97
2019-02-26T10:10:17.759Z,29.00
2019-02-26T10:12:46.588Z,26.80
2019-02-26T10:15:15.730Z,25.63
2019-02-26T10:17:45.210Z,26.00
2019-02-26T10:20:17.763Z,24.43
2019-02-26T10:22:46.732Z,26.07
2019-02-26T10:25:15.662Z,26.07
2019-02-26T10:27:45.446Z,27.13
2019-02-26T10:30:16.275Z,27.70
2019-02-26T10:32:46.851Z,26.83
2019-02-26T10:35:19.457Z,28.20
2019-02-26T10:37:49.812Z,25.60
2019-02-26T10:40:19.523Z,26.57
2019-02-26T10:42:48.737Z,24.57
2019-02-26T10:45:18.725Z,27.40
2019-02-26T10:47:48.970Z,25.97
2019-02-26T10:50:20.358Z,25.57
2019-02-26T10:52:49.195Z,25.63
2019-02-26T10:55:20.718Z,25.17
2019-02-26T10:57:48.687Z,25.10
2019-02-26T11:00:22.441Z,23.67
2019-02-26T11:02:53.453Z,23.70
2019-02-26T11:05:26.278Z,25.23
2019-02-26T11:07:54.938Z,24.93
2019-02-26T11:10:25.069Z,26.00
2019-02-26T11:12:56.295Z,25.87
2019-02-26T11:15:26.715Z,27.90
2019-02-26T11:17:55.863Z,26.80
2019-02-26T11:20:27.793Z,27.73
2019-02-26T11:22:55.417Z,25.70
2019-02-26T11:25:26.865Z,27.23
2019-02-26T11:27:55.375Z,25.00
2019-02-26T11:30:27.244Z,30.03
2019-02-26T11:32:58.613Z,27.77
2019-02-26T11:35:27.445Z,27.67
2019-02-26T11:37:57.988Z,28.70
2019-02-26T11:40:29.601Z,30.20
2019-02-26T11:42:59.775Z,26.27
2019-02-26T11:45:29.715Z,27.63
2019-02-26T11:48:03.671Z,25.13
2019-02-26T11:50:29.084Z,27.17
2019-02-26T11:52:57.937Z,27.10
2019-02-26T11:55:29.185Z,25.87
2019-02-26T11:57:57.308Z,26.83
2019-02-26T12:00:36.318Z,25.40
2019-02-26T12:03:04.759Z,25.80
2019-02-26T12:05:36.024Z,24.03
2019-02-26T12:08:04.402Z,27.37
2019-02-26T12:10:35.897Z,25.53
2019-02-26T12:13:04.505Z,24.40
2019-02-26T12:15:35.697Z,24.90
2019-02-26T12:18:04.141Z,24.17
2019-02-26T12:20:32.871Z,26.67
2019-02-26T12:23:01.660Z,26.90
2019-02-26T12:25:30.428Z,25.70
2019-02-26T12:28:00.167Z,25.97
2019-02-26T12:30:29.953Z,25.17
2019-02-26T12:32:58.753Z,27.73
2019-02-26T12:35:29.691Z,24.33
2019-02-26T12:37:59.354Z,26.23
2019-02-26T12:40:28.738Z,25.90
2019-02-26T12:42:57.767Z,27.40
2019-02-26T12:45:28.598Z,27.40
2019-02-26T12:47:57.179Z,25.90
2019-02-26T12:50:29.513Z,26.43
2019-02-26T12:52:57.232Z,26.60
2019-02-26T12:55:29.512Z,25.90
2019-02-26T12:57:59.458Z,25.70
2019-02-26T13:00:27.866Z,26.13
2019-02-26T13:03:05.689Z,23.87
2019-02-26T13:05:35.247Z,23.30
2019-02-26T13:08:06.030Z,25.20
2019-02-26T13:10:34.563Z,23.40
2019-02-26T13:13:07.424Z,24.27
2019-02-26T13:15:34.191Z,25.43
2019-02-26T13:18:03.149Z,25.90
2019-02-26T13:20:32.133Z,24.50
2019-02-26T13:23:16.267Z,23.93
2019-02-26T13:25:31.663Z,23.67
2019-02-26T13:28:03.677Z,27.60
2019-02-26T13:30:37.194Z,26.07
2019-02-26T13:33:10.971Z,23.87
2019-02-26T13:35:36.752Z,26.23
2019-02-26T13:38:05.727Z,23.30
2019-02-26T13:40:38.507Z,24.27
2019-02-26T13:43:07.667Z,25.00
2019-02-26T13:45:36.752Z,25.30
2019-02-26T13:48:05.667Z,24.80
2019-02-26T13:50:34.794Z,25.20
2019-02-26T13:53:03.886Z,25.27
2019-02-26T13:55:32.814Z,27.77
2019-02-26T13:58:04.796Z,25.97
2019-02-26T14:00:32.883Z,27.10
2019-02-26T14:03:01.673Z,28.10
2019-02-26T14:05:37.945Z,27.60
2019-02-26T14:08:01.430Z,25.97
2019-02-26T14:10:30.366Z,27.53
2019-02-26T14:13:04.595Z,26.23
2019-02-26T14:15:34.127Z,26.10
2019-02-26T14:18:03.552Z,26.00
2019-02-26T14:20:33.847Z,23.47
2019-02-26T14:23:02.871Z,25.90
2019-02-26T14:25:31.776Z,25.23
2019-02-26T14:28:00.809Z,25.40
2019-02-26T14:30:29.752Z,25.23
2019-02-26T14:32:58.552Z,25.40
2019-02-26T14:35:27.396Z,23.83
2019-02-26T14:37:56.172Z,25.63
2019-02-26T14:40:25.007Z,25.50
2019-02-26T14:42:53.839Z,25.57
2019-02-26T14:45:22.744Z,24.60
2019-02-26T14:47:51.707Z,28.30
2019-02-26T14:50:20.540Z,26.10
2019-02-26T14:52:51.844Z,25.17
2019-02-26T14:55:21.395Z,24.20
2019-02-26T14:57:50.281Z,24.60
2019-02-26T15:00:24.255Z,24.50
2019-02-26T15:02:53.096Z,26.50
2019-02-26T15:05:21.951Z,25.70
2019-02-26T15:07:50.844Z,26.20
2019-02-26T15:10:20.517Z,25.60
2019-02-26T15:12:49.689Z,26.73
2019-02-26T15:15:24.455Z,27.50
2019-02-26T15:17:53.698Z,25.50
2019-02-26T15:20:22.652Z,28.20
2019-02-26T15:22:51.707Z,26.77
2019-02-26T15:25:21.757Z,25.00
2019-02-26T15:27:50.573Z,27.30
2019-02-26T15:30:24.532Z,24.07
2019-02-26T15:32:53.536Z,25.83
2019-02-26T15:35:26.539Z,26.10
2019-02-26T15:37:55.666Z,24.63
2019-02-26T15:40:28.295Z,26.70
2019-02-26T15:43:00.266Z,26.60
2019-02-26T15:45:29.681Z,27.03
2019-02-26T15:47:58.724Z,28.47
2019-02-26T15:50:27.551Z,27.60
2019-02-26T15:52:56.314Z,25.60
2019-02-26T15:55:28.703Z,27.20
2019-02-26T15:58:02.986Z,29.97
2019-02-26T16:00:28.615Z,27.00
2019-02-26T16:02:59.325Z,24.77
2019-02-26T16:05:28.347Z,27.10
2019-02-26T16:07:57.417Z,30.53
2019-02-26T16:10:26.340Z,28.33
2019-02-26T16:12:56.783Z,27.73
2019-02-26T16:15:25.923Z,29.60
2019-02-26T16:17:58.190Z,27.03
2019-02-26T16:20:25.435Z,27.63
2019-02-26T16:22:54.239Z,28.97
2019-02-26T16:25:23.066Z,27.07
2019-02-26T16:27:53.804Z,29.50
2019-02-26T16:30:22.555Z,27.67
2019-02-26T16:32:52.145Z,29.00
2019-02-26T16:35:24.766Z,29.97
2019-02-26T16:37:52.086Z,30.00
2019-02-26T16:40:22.315Z,27.83
2019-02-26T16:42:51.248Z,27.97
2019-02-26T16:45:21.335Z,33.40
2019-02-26T16:47:50.240Z,32.13
2019-02-26T16:50:20.699Z,30.27
2019-02-26T16:52:49.741Z,30.70
2019-02-26T16:55:18.611Z,31.00
2019-02-26T16:57:47.879Z,30.47
2019-02-26T17:00:20.413Z,31.00
2019-02-26T17:02:49.082Z,31.37
2019-02-26T17:05:18.054Z,31.67
2019-02-26T17:07:47.023Z,31.37
2019-02-26T17:10:17.966Z,28.60
2019-02-26T17:12:53.113Z,29.43
2019-02-26T17:15:26.769Z,31.07
2019-02-26T17:17:54.475Z,29.20
2019-02-26T17:20:23.695Z,30.70
2019-02-26T17:22:52.741Z,30.47
2019-02-26T17:25:21.678Z,34.17
2019-02-26T17:27:50.618Z,31.10
2019-02-26T17:30:23.860Z,30.83
2019-02-26T17:32:53.587Z,32.83
2019-02-26T17:35:22.519Z,34.30
2019-02-26T17:37:52.052Z,32.87
2019-02-26T17:40:36.624Z,31.77
2019-02-26T17:43:19.385Z,30.87
2019-02-26T17:45:48.722Z,30.50
2019-02-26T17:48:17.686Z,31.27
2019-02-26T17:50:46.700Z,29.47
2019-02-26T17:53:15.607Z,31.67
2019-02-26T17:55:44.541Z,31.07
2019-02-26T17:58:13.399Z,33.20
2019-02-26T18:00:43.724Z,32.60
2019-02-26T18:03:12.524Z,33.67
2019-02-26T18:05:51.597Z,32.77
2019-02-26T18:08:19.686Z,33.17
2019-02-26T18:10:56.301Z,32.67
2019-02-26T18:13:31.913Z,31.97
2019-02-26T18:16:08.957Z,33.23
2019-02-26T18:18:34.211Z,32.53
2019-02-26T18:21:05.642Z,32.90
2019-02-26T18:23:39.420Z,31.73
2019-02-26T18:26:08.404Z,31.50
2019-02-26T18:28:37.244Z,31.70
2019-02-26T18:31:08.526Z,30.00
2019-02-26T18:33:37.749Z,32.43
2019-02-26T18:36:06.691Z,31.97
2019-02-26T18:38:37.178Z,33.77
2019-02-26T18:41:08.030Z,30.27
2019-02-26T18:43:36.938Z,29.87
2019-02-26T18:46:05.987Z,29.17
2019-02-26T18:48:34.811Z,27.53
2019-02-26T18:51:03.819Z,27.97
2019-02-26T18:53:32.913Z,26.63
2019-02-26T18:56:04.130Z,30.60
2019-02-26T18:58:32.580Z,29.63
2019-02-26T19:01:06.293Z,28.97
2019-02-26T19:03:35.280Z,28.80
2019-02-26T19:06:04.190Z,30.93
2019-02-26T19:08:39.231Z,28.97
2019-02-26T19:11:06.520Z,30.07
2019-02-26T19:13:36.250Z,28.57
2019-02-26T19:16:05.506Z,29.30
2019-02-26T19:18:35.758Z,28.60
2019-02-26T19:21:10.857Z,30.27
2019-02-26T19:23:40.327Z,30.80
2019-02-26T19:26:13.480Z,30.00
2019-02-26T19:28:40.124Z,28.20
2019-02-26T19:31:10.289Z,31.00
2019-02-26T19:33:40.083Z,28.10
2019-02-26T19:36:13.030Z,29.77
2019-02-26T19:38:42.462Z,30.87
2019-02-26T19:41:13.169Z,33.87
2019-02-26T19:43:42.264Z,29.30
2019-02-26T19:46:11.440Z,30.40
2019-02-26T19:48:40.662Z,30.17
2019-02-26T19:51:09.538Z,32.93
2019-02-26T19:53:38.545Z,28.93
2019-02-26T19:56:07.482Z,28.50
2019-02-26T19:58:36.505Z,29.97
2019-02-26T20:01:05.912Z,32.60
2019-02-26T20:03:39.824Z,29.87
2019-02-26T20:06:08.440Z,29.43
2019-02-26T20:08:38.674Z,29.00
2019-02-26T20:11:07.507Z,31.97
2019-02-26T20:13:41.890Z,29.80
2019-02-26T20:16:08.789Z,30.93
2019-02-26T20:18:37.624Z,30.07
2019-02-26T20:21:08.401Z,32.17
2019-02-26T20:23:41.774Z,31.23
2019-02-26T20:26:08.516Z,30.70
2019-02-26T20:28:37.586Z,32.47
2019-02-26T20:31:06.810Z,31.77
2019-02-26T20:33:35.661Z,30.17
2019-02-26T20:36:08.408Z,31.40
2019-02-26T20:38:41.376Z,30.90
2019-02-26T20:41:13.190Z,34.03
2019-02-26T20:43:43.863Z,31.03
2019-02-26T20:46:12.983Z,33.67
2019-02-26T20:48:43.418Z,33.10
2019-02-26T20:51:12.526Z,30.17
2019-02-26T20:53:41.506Z,42.17
2019-02-26T20:56:10.766Z,33.87
2019-02-26T20:58:44.934Z,33.23
2019-02-26T21:01:15.073Z,34.10
2019-02-26T21:03:45.153Z,30.50
2019-02-26T21:06:15.662Z,31.70
2019-02-26T21:08:45.911Z,31.40
2019-02-26T21:11:16.638Z,32.30
2019-02-26T21:13:47.565Z,30.17
2019-02-26T21:16:18.586Z,30.43
2019-02-26T21:18:48.192Z,31.67
2019-02-26T21:21:17.118Z,31.90
2019-02-26T21:23:48.649Z,32.27
2019-02-26T21:26:19.669Z,35.40
2019-02-26T21:28:49.380Z,33.90
2019-02-26T21:31:19.139Z,34.83
2019-02-26T21:33:49.570Z,34.03
2019-02-26T21:36:19.888Z,32.80
2019-02-26T21:38:52.432Z,34.53
2019-02-26T21:41:24.556Z,34.27
2019-02-26T21:43:53.604Z,34.80
2019-02-26T21:46:23.300Z,34.20
2019-02-26T21:48:53.226Z,32.50
2019-02-26T21:51:23.532Z,34.10
2019-02-26T21:53:52.798Z,35.40
2019-02-26T21:56:22.976Z,36.90
2019-02-26T21:58:51.979Z,36.20
2019-02-26T22:01:20.888Z,34.97
2019-02-26T22:03:51.375Z,32.87
2019-02-26T22:06:20.325Z,33.27
2019-02-26T22:08:51.468Z,36.33
2019-02-26T22:11:22.164Z,33.97
2019-02-26T22:13:52.060Z,35.90
2019-02-26T22:16:21.000Z,36.07
2019-02-26T22:18:52.770Z,35.87
2019-02-26T22:21:21.866Z,36.77
2019-02-26T22:23:53.495Z,39.17
2019-02-26T22:26:25.946Z,39.50
2019-02-26T22:28:55.445Z,39.00
2019-02-26T22:31:28.699Z,37.00
2019-02-26T22:33:55.098Z,35.00
2019-02-26T22:36:24.001Z,36.70
2019-02-26T22:38:52.824Z,36.57
2019-02-26T22:41:21.661Z,37.27
2019-02-26T22:43:51.056Z,36.70
2019-02-26T22:46:19.889Z,37.67
2019-02-26T22:48:48.797Z,37.23
2019-02-26T22:51:19.524Z,33.60
2019-02-26T22:53:48.384Z,37.80
2019-02-26T22:56:21.936Z,37.30
2019-02-26T22:58:50.647Z,38.37
2019-02-26T23:01:49.293Z,38.87
2019-02-26T23:04:19.768Z,40.97
2019-02-26T23:06:56.729Z,38.97
2019-02-26T23:09:27.837Z,42.90
2019-02-26T23:11:56.655Z,40.20
2019-02-26T23:14:25.618Z,41.43
2019-02-26T23:16:54.608Z,44.23
2019-02-26T23:19:23.938Z,41.77
2019-02-26T23:21:52.899Z,42.10
2019-02-26T23:24:22.099Z,40.37
2019-02-26T23:26:51.169Z,40.50
2019-02-26T23:29:20.134Z,42.07
2019-02-26T23:31:49.989Z,39.87
2019-02-26T23:34:21.889Z,39.87
2019-02-26T23:36:49.821Z,38.07
2019-02-26T23:39:22.877Z,40.17
2019-02-26T23:41:53.497Z,39.77
2019-02-26T23:44:22.697Z,37.80
2019-02-26T23:46:54.929Z,39.77
2019-02-26T23:49:23.855Z,39.67
2019-02-26T23:51:53.715Z,37.83
2019-02-26T23:54:23.215Z,37.83
2019-02-26T23:56:52.601Z,39.63
2019-02-26T23:59:21.525Z,38.10
